createdAt,value
2022-10-14T03:47:07.163Z,13.40
2022-10-14T03:49:33.822Z,13.40
2022-10-14T03:52:00.486Z,13.30
2022-10-14T03:54:27.312Z,13.40
2022-10-14T03:56:53.979Z,13.40
2022-10-14T03:59:20.635Z,13.40
2022-10-14T04:01:47.331Z,13.40
2022-10-14T04:04:14.013Z,13.40
2022-10-14T04:06:40.698Z,13.40
2022-10-14T04:09:07.470Z,13.40
2022-10-14T04:11:34.145Z,13.50
2022-10-14T04:14:01.184Z,13.40
2022-10-14T04:16:27.852Z,13.40
2022-10-14T04:18:55.031Z,13.50
2022-10-14T04:21:21.693Z,13.40
2022-10-14T04:23:48.466Z,13.50
2022-10-14T04:26:15.166Z,13.40
2022-10-14T04:28:41.922Z,13.40
2022-10-14T04:31:09.244Z,13.40
2022-10-14T04:33:36.530Z,13.50
2022-10-14T04:36:05.456Z,13.50
2022-10-14T04:38:33.461Z,13.50
2022-10-14T04:41:00.602Z,13.50
2022-10-14T04:43:27.306Z,13.50
2022-10-14T04:45:54.493Z,13.50
2022-10-14T04:48:21.223Z,13.50
2022-10-14T04:50:53.730Z,13.50
2022-10-14T04:53:22.362Z,13.50
2022-10-14T04:55:49.675Z,13.50
2022-10-14T04:58:17.318Z,13.50
2022-10-14T05:00:44.393Z,13.60
2022-10-14T05:03:11.125Z,13.50
2022-10-14T05:05:38.009Z,13.50
2022-10-14T05:08:04.904Z,13.60
2022-10-14T05:10:31.818Z,13.60
2022-10-14T05:12:58.463Z,13.60
2022-10-14T05:15:25.165Z,13.60
2022-10-14T05:17:51.815Z,13.60
2022-10-14T05:20:18.633Z,13.60
2022-10-14T05:22:48.053Z,13.60
2022-10-14T05:25:14.849Z,13.60
2022-10-14T05:27:41.654Z,13.70
2022-10-14T05:30:09.612Z,13.60
2022-10-14T05:32:36.974Z,13.60
2022-10-14T05:35:04.121Z,13.60
2022-10-14T05:37:30.808Z,13.60
2022-10-14T05:39:57.558Z,13.60
2022-10-14T05:42:25.012Z,13.60
2022-10-14T05:44:51.794Z,13.60
2022-10-14T05:47:18.458Z,13.60
2022-10-14T05:49:45.090Z,13.50
2022-10-14T05:52:11.832Z,13.60
2022-10-14T05:54:38.541Z,13.60
2022-10-14T05:57:05.273Z,13.60
2022-10-14T05:59:34.632Z,13.50
2022-10-14T06:02:02.379Z,13.50
2022-10-14T06:04:29.460Z,13.50
2022-10-14T06:06:56.203Z,13.50
2022-10-14T06:09:23.436Z,13.50
2022-10-14T06:11:50.186Z,13.50
2022-10-14T06:14:16.860Z,13.60
2022-10-14T06:16:43.499Z,13.60
2022-10-14T06:19:10.133Z,13.70
2022-10-14T06:21:36.783Z,13.70
2022-10-14T06:24:03.699Z,13.80
2022-10-14T06:26:30.481Z,13.80
2022-10-14T06:28:57.463Z,13.80
2022-10-14T06:31:26.523Z,13.80
2022-10-14T06:33:56.541Z,13.80
2022-10-14T06:36:23.210Z,13.80
2022-10-14T06:38:49.845Z,13.80
2022-10-14T06:41:16.515Z,13.80
2022-10-14T06:43:43.147Z,13.80
2022-10-14T06:46:09.791Z,13.80
2022-10-14T06:48:36.544Z,13.80
2022-10-14T06:51:03.436Z,13.90
2022-10-14T06:53:30.298Z,13.90
2022-10-14T06:56:02.808Z,13.90
2022-10-14T06:58:30.368Z,14.00
2022-10-14T07:01:02.090Z,14.00
2022-10-14T07:03:28.855Z,14.10
2022-10-14T07:05:55.506Z,14.10
2022-10-14T07:08:22.143Z,14.20
2022-10-14T07:10:49.302Z,14.20
2022-10-14T07:13:16.126Z,14.20
2022-10-14T07:15:42.774Z,14.20
2022-10-14T07:18:09.406Z,14.30
2022-10-14T07:20:36.104Z,14.30
2022-10-14T07:23:02.750Z,14.40
2022-10-14T07:25:29.408Z,14.40
2022-10-14T07:27:56.062Z,14.50
2022-10-14T07:30:23.168Z,14.60
2022-10-14T07:32:50.337Z,14.70
2022-10-14T07:35:18.868Z,14.80
2022-10-14T07:37:46.676Z,14.90
2022-10-14T07:40:13.894Z,14.80
2022-10-14T07:42:40.613Z,14.90
2022-10-14T07:45:07.776Z,14.90
2022-10-14T07:47:34.410Z,15.00
2022-10-14T07:50:02.230Z,14.90
2022-10-14T07:52:29.111Z,15.00
2022-10-14T07:54:55.829Z,15.00
2022-10-14T07:57:23.420Z,15.00
2022-10-14T07:59:52.600Z,15.00
2022-10-14T08:02:19.865Z,14.90
2022-10-14T08:04:47.425Z,14.80
2022-10-14T08:07:16.791Z,14.80
2022-10-14T08:09:43.609Z,14.80
2022-10-14T08:12:10.519Z,14.90
2022-10-14T08:14:37.451Z,14.90
2022-10-14T08:17:04.210Z,15.00
2022-10-14T08:19:31.124Z,15.10
2022-10-14T08:21:57.822Z,15.10
2022-10-14T08:24:24.490Z,14.90
2022-10-14T08:26:54.455Z,14.90
2022-10-14T08:29:24.573Z,14.90
2022-10-14T08:31:52.421Z,15.00
2022-10-14T08:34:21.812Z,15.00
2022-10-14T08:36:49.045Z,15.10
2022-10-14T08:39:18.595Z,15.10
2022-10-14T08:42:16.269Z,15.20
2022-10-14T08:44:49.413Z,15.30
2022-10-14T08:47:20.803Z,15.20
2022-10-14T08:50:00.085Z,15.10
2022-10-14T08:52:44.446Z,15.00
2022-10-14T08:55:29.953Z,14.90
2022-10-14T08:58:22.882Z,14.80
2022-10-14T09:00:52.357Z,14.90
2022-10-14T09:03:33.113Z,14.90
2022-10-14T09:06:14.234Z,15.00
2022-10-14T09:08:44.851Z,14.90
2022-10-14T09:11:18.616Z,14.80
2022-10-14T09:13:52.822Z,14.60
2022-10-14T09:16:22.478Z,14.50
2022-10-14T09:18:58.381Z,14.60
2022-10-14T09:21:53.488Z,14.70
2022-10-14T09:24:27.766Z,14.90
2022-10-14T09:27:02.170Z,14.90
2022-10-14T09:29:37.395Z,14.90
2022-10-14T09:32:07.113Z,15.00
2022-10-14T09:34:44.862Z,14.90
2022-10-14T09:37:23.729Z,15.00
2022-10-14T09:39:53.217Z,14.90
2022-10-14T09:42:26.063Z,14.70
2022-10-14T09:45:22.799Z,14.70
2022-10-14T09:48:04.180Z,14.70
2022-10-14T09:50:55.418Z,14.70
2022-10-14T09:53:28.294Z,14.60
2022-10-14T09:56:06.618Z,14.60
2022-10-14T09:58:55.349Z,14.80
2022-10-14T10:01:27.941Z,14.90
2022-10-14T10:03:56.273Z,14.80
2022-10-14T10:06:25.887Z,14.90
2022-10-14T10:08:55.453Z,14.70
2022-10-14T10:11:28.339Z,14.90
2022-10-14T10:13:55.430Z,15.00
2022-10-14T10:16:31.157Z,15.10
2022-10-14T10:19:01.594Z,15.20
2022-10-14T10:21:30.259Z,15.40
2022-10-14T10:23:59.610Z,15.50
2022-10-14T10:26:31.956Z,15.70
2022-10-14T10:29:04.707Z,15.80
2022-10-14T10:31:50.142Z,15.80
2022-10-14T10:34:37.757Z,15.90
2022-10-14T10:37:26.126Z,16.00
2022-10-14T10:40:24.533Z,16.10
2022-10-14T10:43:11.464Z,16.00
2022-10-14T10:45:47.202Z,15.70
2022-10-14T10:48:28.060Z,15.40
2022-10-14T10:51:02.875Z,15.30
2022-10-14T10:54:02.496Z,15.40
2022-10-14T10:57:01.982Z,15.50
2022-10-14T10:59:52.540Z,15.70
2022-10-14T11:02:38.830Z,15.60
2022-10-14T11:05:43.201Z,15.70
2022-10-14T11:08:50.624Z,15.70
2022-10-14T11:11:39.074Z,15.70
2022-10-14T11:14:23.682Z,15.50
2022-10-14T11:16:55.479Z,15.50
2022-10-14T11:19:35.872Z,15.50
2022-10-14T11:22:14.136Z,15.60
2022-10-14T11:24:58.499Z,15.60
2022-10-14T11:27:33.139Z,15.60
2022-10-14T11:30:15.432Z,15.70
2022-10-14T11:33:09.375Z,15.70
2022-10-14T11:35:53.388Z,15.70
2022-10-14T11:38:30.214Z,15.70
2022-10-14T11:41:18.045Z,15.90
2022-10-14T11:43:55.522Z,15.90
2022-10-14T11:46:26.604Z,15.80
2022-10-14T11:48:56.643Z,15.70
2022-10-14T11:51:41.067Z,15.90
2022-10-14T11:54:16.990Z,16.00
2022-10-14T11:57:02.153Z,16.20
2022-10-14T11:59:40.850Z,16.40
2022-10-14T12:02:32.445Z,16.60
2022-10-14T12:05:18.566Z,16.60
2022-10-14T12:08:23.161Z,16.70
2022-10-14T12:10:59.626Z,16.70
2022-10-14T12:13:34.578Z,16.70
2022-10-14T12:16:05.430Z,16.80
2022-10-14T12:18:33.126Z,16.60
2022-10-14T12:21:20.138Z,16.50
2022-10-14T12:23:58.811Z,16.60
2022-10-14T12:26:25.421Z,16.60
2022-10-14T12:28:54.235Z,16.50
2022-10-14T12:31:37.296Z,16.50
2022-10-14T12:34:15.984Z,16.50
2022-10-14T12:36:47.751Z,16.50
2022-10-14T12:39:17.225Z,16.40
2022-10-14T12:41:55.576Z,16.50
2022-10-14T12:44:27.279Z,16.40
2022-10-14T12:46:54.104Z,16.40
2022-10-14T12:49:27.859Z,16.50
2022-10-14T12:52:01.578Z,16.50
2022-10-14T12:54:30.010Z,16.50
2022-10-14T12:57:15.117Z,16.50
2022-10-14T12:59:41.939Z,16.50
2022-10-14T13:02:27.425Z,16.60
2022-10-14T13:04:55.433Z,16.60
2022-10-14T13:07:45.828Z,16.60
2022-10-14T13:10:46.961Z,16.70
2022-10-14T13:13:42.486Z,16.60
2022-10-14T13:16:10.041Z,16.50
2022-10-14T13:18:42.307Z,16.60
2022-10-14T13:21:20.271Z,16.80
2022-10-14T13:23:50.956Z,16.90
2022-10-14T13:26:20.578Z,17.00
2022-10-14T13:29:15.089Z,17.10
2022-10-14T13:32:05.824Z,17.20
2022-10-14T13:34:54.878Z,17.40
2022-10-14T13:37:32.909Z,17.40
2022-10-14T13:40:22.893Z,17.20
2022-10-14T13:42:53.127Z,17.10
2022-10-14T13:45:22.807Z,17.10
2022-10-14T13:47:50.182Z,17.10
2022-10-14T13:50:23.535Z,17.00
2022-10-14T13:53:00.015Z,17.00
2022-10-14T13:55:27.244Z,17.00
2022-10-14T13:58:12.592Z,16.80
2022-10-14T14:00:55.062Z,16.80
2022-10-14T14:03:43.297Z,16.80
2022-10-14T14:06:13.791Z,16.80
2022-10-14T14:08:56.446Z,16.70
2022-10-14T14:11:30.963Z,16.70
2022-10-14T14:14:07.001Z,16.60
2022-10-14T14:16:59.618Z,16.60
2022-10-14T14:19:26.237Z,16.80
2022-10-14T14:22:14.465Z,16.70
2022-10-14T14:24:41.317Z,16.90
2022-10-14T14:27:23.592Z,16.70
2022-10-14T14:29:52.106Z,16.70
2022-10-14T14:32:23.242Z,16.80
2022-10-14T14:34:51.094Z,16.80
2022-10-14T14:37:53.291Z,16.70
2022-10-14T14:40:21.797Z,16.60
2022-10-14T14:42:52.197Z,16.60
2022-10-14T14:45:31.046Z,16.70
2022-10-14T14:48:03.477Z,16.70
2022-10-14T14:50:39.026Z,16.60
2022-10-14T14:53:24.049Z,16.70
2022-10-14T14:55:53.956Z,16.70
2022-10-14T14:58:26.159Z,16.70
2022-10-14T15:00:54.847Z,16.70
2022-10-14T15:03:25.115Z,16.60
2022-10-14T15:05:56.055Z,16.50
2022-10-14T15:08:26.097Z,16.30
2022-10-14T15:10:55.150Z,16.00
2022-10-14T15:13:26.598Z,15.80
2022-10-14T15:15:54.096Z,15.70
2022-10-14T15:18:28.250Z,15.50
2022-10-14T15:21:27.749Z,15.40
2022-10-14T15:23:56.158Z,15.40
2022-10-14T15:26:22.834Z,15.40
2022-10-14T15:29:08.056Z,15.40
2022-10-14T15:31:36.196Z,15.40
2022-10-14T15:34:03.777Z,15.40
2022-10-14T15:36:34.825Z,15.40
2022-10-14T15:39:02.416Z,15.40
2022-10-14T15:41:29.418Z,15.40
2022-10-14T15:43:56.280Z,15.30
2022-10-14T15:46:41.997Z,15.40
2022-10-14T15:49:20.261Z,15.50
2022-10-14T15:51:46.902Z,15.50
2022-10-14T15:54:14.014Z,15.50
2022-10-14T15:56:40.643Z,15.40
2022-10-14T15:59:07.314Z,15.50
2022-10-14T16:01:37.567Z,15.50
2022-10-14T16:04:04.352Z,15.50
2022-10-14T16:06:32.503Z,15.40
2022-10-14T16:08:59.296Z,15.50
2022-10-14T16:11:28.494Z,15.40
2022-10-14T16:13:55.649Z,15.40
2022-10-14T16:16:35.941Z,15.50
2022-10-14T16:19:03.281Z,15.40
2022-10-14T16:21:30.281Z,15.30
2022-10-14T16:23:58.708Z,15.30
2022-10-14T16:26:26.119Z,15.30
2022-10-14T16:28:53.253Z,15.30
2022-10-14T16:31:21.403Z,15.30
2022-10-14T16:33:52.600Z,15.20
2022-10-14T16:36:19.498Z,15.20
2022-10-14T16:38:46.138Z,15.20
2022-10-14T16:41:13.810Z,15.20
2022-10-14T16:43:40.656Z,15.20
2022-10-14T16:46:10.475Z,15.20
2022-10-14T16:48:39.986Z,15.20
2022-10-14T16:51:07.033Z,15.10
2022-10-14T16:53:45.108Z,15.10
2022-10-14T16:56:37.127Z,15.10
2022-10-14T16:59:04.851Z,15.20
2022-10-14T17:01:31.725Z,15.10
2022-10-14T17:03:59.003Z,15.20
2022-10-14T17:06:26.345Z,15.20
2022-10-14T17:08:53.291Z,15.20
2022-10-14T17:11:20.414Z,15.20
2022-10-14T17:13:50.397Z,15.30
2022-10-14T17:16:17.047Z,15.20
2022-10-14T17:18:43.860Z,15.20
2022-10-14T17:21:12.252Z,15.30
2022-10-14T17:23:43.763Z,15.30
2022-10-14T17:26:13.562Z,15.20
2022-10-14T17:28:41.824Z,15.20
2022-10-14T17:31:11.547Z,15.20
2022-10-14T17:33:39.578Z,15.30
2022-10-14T17:36:07.632Z,15.20
2022-10-14T17:38:35.372Z,15.20
2022-10-14T17:41:07.664Z,15.20
2022-10-14T17:43:34.962Z,15.10
2022-10-14T17:46:12.327Z,15.00
2022-10-14T17:48:43.667Z,15.10
2022-10-14T17:51:11.498Z,15.10
2022-10-14T17:53:39.373Z,15.10
2022-10-14T17:56:08.107Z,15.10
2022-10-14T17:58:34.970Z,15.00
2022-10-14T18:01:06.390Z,15.10
2022-10-14T18:03:34.662Z,15.00
2022-10-14T18:06:31.586Z,15.00
2022-10-14T18:09:01.159Z,15.00
2022-10-14T18:11:35.414Z,15.00
2022-10-14T18:14:16.050Z,15.00
2022-10-14T18:16:43.775Z,15.00
2022-10-14T18:19:16.774Z,15.00
2022-10-14T18:21:44.356Z,14.90
2022-10-14T18:24:12.258Z,14.90
2022-10-14T18:26:42.054Z,15.00
2022-10-14T18:29:09.376Z,14.90
2022-10-14T18:31:36.701Z,14.90
2022-10-14T18:34:03.905Z,15.00
2022-10-14T18:36:33.020Z,15.00
2022-10-14T18:39:02.062Z,15.00
2022-10-14T18:41:29.827Z,14.90
2022-10-14T18:43:59.833Z,15.00
2022-10-14T18:46:29.365Z,15.00
2022-10-14T18:48:58.170Z,15.00
2022-10-14T18:51:27.743Z,15.00
2022-10-14T18:53:57.451Z,15.00
2022-10-14T18:56:29.900Z,15.00
2022-10-14T18:59:10.957Z,15.00
2022-10-14T19:01:39.268Z,15.00
2022-10-14T19:04:10.442Z,15.00
2022-10-14T19:06:37.275Z,15.00
2022-10-14T19:09:05.350Z,14.90
2022-10-14T19:11:34.104Z,14.90
2022-10-14T19:14:04.444Z,14.80
2022-10-14T19:16:33.554Z,14.80
2022-10-14T19:19:11.821Z,14.80
2022-10-14T19:21:39.055Z,14.90
2022-10-14T19:24:08.217Z,14.80
2022-10-14T19:26:38.025Z,14.80
2022-10-14T19:29:09.127Z,14.80
2022-10-14T19:31:38.718Z,14.70
2022-10-14T19:34:07.622Z,14.70
2022-10-14T19:36:38.309Z,14.70
2022-10-14T19:39:06.757Z,14.70
2022-10-14T19:41:35.104Z,14.60
2022-10-14T19:44:01.918Z,14.60
2022-10-14T19:46:29.570Z,14.60
2022-10-14T19:49:02.276Z,14.70
2022-10-14T19:51:29.217Z,14.70
2022-10-14T19:53:56.387Z,14.70
2022-10-14T19:56:23.860Z,14.60
2022-10-14T19:58:52.964Z,14.60
2022-10-14T20:01:21.343Z,14.60
2022-10-14T20:03:48.142Z,14.60
2022-10-14T20:06:15.166Z,14.60
2022-10-14T20:08:42.933Z,14.60
2022-10-14T20:11:12.061Z,14.60
2022-10-14T20:13:38.888Z,14.50
2022-10-14T20:16:08.592Z,14.50
2022-10-14T20:18:35.836Z,14.40
2022-10-14T20:21:03.994Z,14.50
2022-10-14T20:23:33.986Z,14.50
2022-10-14T20:26:02.451Z,14.50
2022-10-14T20:28:29.166Z,14.50
2022-10-14T20:30:57.339Z,14.40
2022-10-14T20:33:24.517Z,14.40
2022-10-14T20:36:01.921Z,14.40
2022-10-14T20:38:29.134Z,14.30
2022-10-14T20:40:55.824Z,14.40
2022-10-14T20:43:22.500Z,14.30
2022-10-14T20:45:49.175Z,14.30
2022-10-14T20:48:15.908Z,14.30
2022-10-14T20:50:42.662Z,14.40
2022-10-14T20:53:09.399Z,14.40
2022-10-14T20:55:36.068Z,14.40
2022-10-14T20:58:02.710Z,14.30
2022-10-14T21:00:29.625Z,14.30
2022-10-14T21:02:56.405Z,14.30
2022-10-14T21:05:23.141Z,14.30
2022-10-14T21:07:51.946Z,14.30
2022-10-14T21:10:19.074Z,14.30
2022-10-14T21:12:48.690Z,14.40
2022-10-14T21:15:15.773Z,14.40
2022-10-14T21:17:50.218Z,14.30
2022-10-14T21:20:16.994Z,14.40
2022-10-14T21:22:43.665Z,14.30
2022-10-14T21:25:10.441Z,14.30
2022-10-14T21:27:37.093Z,14.40
2022-10-14T21:30:04.432Z,14.30
2022-10-14T21:32:31.067Z,14.40
2022-10-14T21:34:58.782Z,14.40
2022-10-14T21:37:25.505Z,14.40
2022-10-14T21:39:52.136Z,14.40
2022-10-14T21:42:18.961Z,14.40
2022-10-14T21:44:45.702Z,14.40
2022-10-14T21:47:12.326Z,14.50
2022-10-14T21:49:39.061Z,14.40
2022-10-14T21:52:05.720Z,14.40
2022-10-14T21:54:32.516Z,14.40
2022-10-14T21:56:59.164Z,14.30
2022-10-14T21:59:25.893Z,14.40
2022-10-14T22:01:56.393Z,14.40
2022-10-14T22:04:23.112Z,14.40
2022-10-14T22:06:49.802Z,14.40
2022-10-14T22:09:16.477Z,14.40
2022-10-14T22:11:43.121Z,14.40
2022-10-14T22:14:17.067Z,14.30
2022-10-14T22:16:44.808Z,14.30
2022-10-14T22:19:12.995Z,14.30
2022-10-14T22:21:41.720Z,14.30
2022-10-14T22:24:08.985Z,14.30
2022-10-14T22:26:35.912Z,14.30
2022-10-14T22:29:12.140Z,14.40
2022-10-14T22:31:38.853Z,14.40
2022-10-14T22:34:07.125Z,14.40
2022-10-14T22:36:34.710Z,14.50
2022-10-14T22:39:03.918Z,14.40
2022-10-14T22:41:35.103Z,14.40
2022-10-14T22:44:02.575Z,14.40
2022-10-14T22:46:31.982Z,14.40
2022-10-14T22:49:00.702Z,14.40
2022-10-14T22:51:33.639Z,14.50
2022-10-14T22:54:00.684Z,14.50
2022-10-14T22:56:29.007Z,14.50
2022-10-14T22:58:57.502Z,14.50
2022-10-14T23:01:27.727Z,14.50
2022-10-14T23:03:56.311Z,14.60
2022-10-14T23:06:23.508Z,14.60
2022-10-14T23:08:50.310Z,14.60
2022-10-14T23:11:19.898Z,14.60
2022-10-14T23:13:46.869Z,14.50
2022-10-14T23:16:19.965Z,14.50
2022-10-14T23:18:47.869Z,14.50
2022-10-14T23:21:23.439Z,14.60
2022-10-14T23:23:51.583Z,14.60
2022-10-14T23:26:25.152Z,14.60
2022-10-14T23:28:53.091Z,14.70
